Time,TemperatureF,DewpointF,PressureIn,WindDirection,WindDirectionDegrees,WindSpeedMPH,WindSpeedGustMPH,Humidity,HourlyPrecipIn,Conditions,Clouds,dailyrainin,SoftwareType,DateUTC
2013-08-06 00:02:00,72.0,67.0,-100.00,SSW,200,2.0,4.0,83,0.00,,,-99.99,,2013-08-06 05:02:00,
2013-08-06 00:11:00,72.0,67.0,-100.00,SSW,210,3.0,4.0,82,0.00,,,-99.99,,2013-08-06 05:11:00,
2013-08-06 00:22:00,72.0,67.0,-100.00,SW,220,1.0,4.0,82,0.00,,,-99.99,,2013-08-06 05:22:00,
2013-08-06 00:32:00,72.0,67.0,-100.00,SSW,200,4.0,6.0,82,0.00,,,-99.99,,2013-08-06 05:32:00,
2013-08-06 00:43:00,72.0,67.0,-100.00,SSW,200,4.0,6.0,82,0.00,,,-99.99,,2013-08-06 05:43:00,
2013-08-06 01:02:00,72.0,67.0,-100.00,SSW,205,3.0,4.0,83,0.00,,,-99.99,,2013-08-06 06:02:00,
2013-08-06 01:11:00,72.0,67.0,-100.00,SSW,205,3.0,4.0,83,0.00,,,-99.99,,2013-08-06 06:11:00,
2013-08-06 01:22:00,72.0,66.0,-100.00,SSW,210,6.0,6.0,83,0.00,,,-99.99,,2013-08-06 06:22:00,
2013-08-06 01:32:00,71.0,66.0,-100.00,SW,215,4.0,5.0,83,0.00,,,-99.99,,2013-08-06 06:32:00,
2013-08-06 01:43:00,71.0,66.0,-100.00,SW,215,4.0,5.0,83,0.00,,,-99.99,,2013-08-06 06:43:00,
2013-08-06 02:01:00,71.0,66.0,-100.00,WSW,245,3.0,6.0,83,0.00,,,-99.99,,2013-08-06 07:01:00,
2013-08-06 02:12:00,71.0,66.0,-100.00,WSW,245,2.0,4.0,82,0.03,,,-99.99,,2013-08-06 07:12:00,
2013-08-06 02:22:00,71.0,66.0,-100.00,West,270,1.0,2.0,82,0.00,,,-99.99,,2013-08-06 07:22:00,
2013-08-06 02:32:00,71.0,66.0,-100.00,WNW,295,1.0,2.0,83,0.00,,,-99.99,,2013-08-06 07:32:00,
2013-08-06 02:43:00,71.0,65.0,-100.00,West,265,1.0,2.0,83,0.00,,,-99.99,,2013-08-06 07:43:00,
2013-08-06 02:53:00,70.0,65.0,-100.00,WNW,285,1.0,2.0,83,0.00,,,-99.99,,2013-08-06 07:53:00,
2013-08-06 03:02:00,70.0,65.0,-100.00,West,270,2.0,2.0,84,0.00,,,-99.99,,2013-08-06 08:02:00,
2013-08-06 03:11:00,71.0,65.0,-100.00,WNW,300,2.0,3.0,84,0.00,,,-99.99,,2013-08-06 08:11:00,
2013-08-06 03:22:00,70.0,66.0,-100.00,NW,305,2.0,3.0,84,0.00,,,-99.99,,2013-08-06 08:22:00,
2013-08-06 03:33:00,70.0,65.0,-100.00,NW,305,2.0,4.0,84,0.00,,,-99.99,,2013-08-06 08:33:00,
2013-08-06 03:43:00,70.0,65.0,-100.00,NW,305,2.0,4.0,84,0.00,,,-99.99,,2013-08-06 08:43:00,
2013-08-06 04:01:00,70.0,65.0,-100.00,West,270,2.0,4.0,84,0.00,,,-99.99,,2013-08-06 09:01:00,
2013-08-06 04:11:00,70.0,65.0,-100.00,West,270,2.0,4.0,84,0.00,,,-99.99,,2013-08-06 09:11:00,
2013-08-06 04:22:00,70.0,65.0,-100.00,NW,325,1.0,2.0,85,0.00,,,-99.99,,2013-08-06 09:22:00,
2013-08-06 04:32:00,69.0,64.0,-100.00,West,275,1.0,2.0,86,0.00,,,-99.99,,2013-08-06 09:32:00,
2013-08-06 04:43:00,69.0,64.0,-100.00,West,275,1.0,2.0,86,0.00,,,-99.99,,2013-08-06 09:43:00,
2013-08-06 04:52:00,68.0,63.0,-100.00,SW,225,0.0,1.0,86,0.00,,,-99.99,,2013-08-06 09:52:00,
2013-08-06 05:01:00,66.0,62.0,-100.00,NE,40,1.0,2.0,86,0.00,,,-99.99,,2013-08-06 10:01:00,
2013-08-06 05:12:00,66.0,62.0,-100.00,NE,40,1.0,2.0,86,0.00,,,-99.99,,2013-08-06 10:12:00,
2013-08-06 05:22:00,67.0,63.0,-100.00,SSW,210,0.0,2.0,87,0.00,,,-99.99,,2013-08-06 10:22:00,
2013-08-06 05:32:00,66.0,62.0,-100.00,WNW,300,0.0,0.0,87,0.00,,,-99.99,,2013-08-06 10:32:00,
2013-08-06 05:43:00,65.0,61.0,-100.00,North,10,0.0,0.0,87,0.00,,,-99.99,,2013-08-06 10:43:00,
2013-08-06 06:02:00,65.0,61.0,-100.00,North,0,1.0,2.0,88,0.00,,,-99.99,,2013-08-06 11:02:00,
2013-08-06 06:11:00,65.0,62.0,-100.00,NW,325,0.0,2.0,88,0.00,,,-99.99,,2013-08-06 11:11:00,
2013-08-06 06:22:00,65.0,61.0,-100.00,NNE,30,2.0,2.0,88,0.00,,,-99.99,,2013-08-06 11:22:00,
2013-08-06 06:32:00,64.0,60.0,-100.00,North,10,1.0,4.0,88,0.00,,,-99.99,,2013-08-06 11:32:00,
2013-08-06 06:43:00,64.0,61.0,-100.00,NNE,25,1.0,2.0,88,0.00,,,-99.99,,2013-08-06 11:43:00,
2013-08-06 07:02:00,67.0,63.0,-100.00,West,260,1.0,2.0,88,0.00,,,-99.99,,2013-08-06 12:02:00,
2013-08-06 07:11:00,66.0,62.0,-100.00,NNW,340,1.0,2.0,88,0.00,,,-99.99,,2013-08-06 12:11:00,
2013-08-06 07:22:00,67.0,63.0,-100.00,North,355,1.0,3.0,88,0.00,,,-99.99,,2013-08-06 12:22:00,
2013-08-06 07:32:00,68.0,65.0,-100.00,SSE,160,0.0,2.0,88,0.00,,,-99.99,,2013-08-06 12:32:00,
2013-08-06 07:43:00,70.0,66.0,-100.00,SW,215,0.0,1.0,88,0.00,,,-99.99,,2013-08-06 12:43:00,
2013-08-06 08:53:00,76.0,67.0,-100.00,West,265,2.0,3.0,73,0.00,,,-99.99,,2013-08-06 13:53:00,
2013-08-06 09:01:00,78.0,66.0,-100.00,SE,130,1.0,2.0,68,0.00,,,-99.99,,2013-08-06 14:01:00,
2013-08-06 09:11:00,78.0,65.0,-100.00,WNW,290,3.0,5.0,66,0.00,,,-99.99,,2013-08-06 14:11:00,
2013-08-06 09:22:00,77.0,65.0,-100.00,SW,225,2.0,6.0,66,0.00,,,-99.99,,2013-08-06 14:22:00,
2013-08-06 09:32:00,77.0,65.0,-100.00,SSW,195,3.0,4.0,66,0.00,,,-99.99,,2013-08-06 14:32:00,
2013-08-06 09:42:00,76.0,65.0,-100.00,South,185,4.0,7.0,68,0.00,,,-99.99,,2013-08-06 14:42:00,
2013-08-06 09:53:00,76.0,66.0,-100.00,SSW,200,5.0,7.0,71,0.00,,,-99.99,,2013-08-06 14:53:00,
2013-08-06 10:02:00,76.0,66.0,-100.00,SW,220,4.0,7.0,71,0.00,,,-99.99,,2013-08-06 15:02:00,
2013-08-06 10:11:00,76.0,67.0,-100.00,SSW,195,4.0,6.0,71,0.00,,,-99.99,,2013-08-06 15:11:00,
2013-08-06 10:22:00,77.0,67.0,-100.00,South,180,4.0,6.0,71,0.00,,,-99.99,,2013-08-06 15:22:00,
2013-08-06 10:33:00,79.0,68.0,-100.00,SW,225,3.0,5.0,69,0.00,,,-99.99,,2013-08-06 15:33:00,
2013-08-06 10:44:00,80.0,67.0,-100.00,SSW,210,4.0,7.0,64,0.00,,,-99.99,,2013-08-06 15:44:00,
2013-08-06 10:52:00,80.0,67.0,-100.00,SW,225,7.0,9.0,63,0.00,,,-99.99,,2013-08-06 15:52:00,
2013-08-06 11:02:00,82.0,67.0,-100.00,South,190,6.0,11.0,61,0.00,,,-99.99,,2013-08-06 16:02:00,
2013-08-06 11:11:00,82.0,66.0,-100.00,SSW,200,8.0,15.0,58,0.00,,,-99.99,,2013-08-06 16:11:00,
2013-08-06 11:22:00,83.0,66.0,-100.00,SW,235,8.0,12.0,56,0.00,,,-99.99,,2013-08-06 16:22:00,
2013-08-06 11:32:00,83.0,65.0,-100.00,SSW,200,7.0,11.0,54,0.00,,,-99.99,,2013-08-06 16:32:00,
2013-08-06 11:43:00,83.0,65.0,-100.00,WSW,240,4.0,11.0,53,0.00,,,-99.99,,2013-08-06 16:43:00,
2013-08-06 12:02:00,83.0,65.0,-100.00,South,185,7.0,11.0,53,0.00,,,-99.99,,2013-08-06 17:02:00,
2013-08-06 12:11:00,82.0,64.0,-100.00,South,175,11.0,16.0,53,0.00,,,-99.99,,2013-08-06 17:11:00,
2013-08-06 12:21:00,83.0,65.0,-100.00,SSW,200,9.0,13.0,55,0.00,,,-99.99,,2013-08-06 17:21:00,
2013-08-06 12:32:00,83.0,66.0,-100.00,South,175,9.0,14.0,56,0.00,,,-99.99,,2013-08-06 17:32:00,
2013-08-06 12:44:00,83.0,66.0,-100.00,SSW,195,8.0,12.0,56,0.00,,,-99.99,,2013-08-06 17:44:00,
2013-08-06 13:01:00,84.0,65.0,-100.00,SE,135,6.0,11.0,53,0.00,,,-99.99,,2013-08-06 18:01:00,
2013-08-06 13:11:00,84.0,63.0,-100.00,SE,140,7.0,12.0,49,0.00,,,-99.99,,2013-08-06 18:11:00,
2013-08-06 13:22:00,85.0,64.0,-100.00,SE,140,9.0,14.0,48,0.00,,,-99.99,,2013-08-06 18:22:00,
2013-08-06 13:32:00,85.0,64.0,-100.00,SE,140,9.0,14.0,48,0.00,,,-99.99,,2013-08-06 18:32:00,
2013-08-06 13:43:00,85.0,65.0,-100.00,South,185,10.0,17.0,50,0.00,,,-99.99,,2013-08-06 18:43:00,
2013-08-06 14:01:00,86.0,62.0,-100.00,South,175,13.0,17.0,44,0.00,,,-99.99,,2013-08-06 19:01:00,
2013-08-06 14:11:00,87.0,63.0,-100.00,South,185,9.0,14.0,46,0.00,,,-99.99,,2013-08-06 19:11:00,
2013-08-06 14:21:00,86.0,63.0,-100.00,South,170,12.0,17.0,45,0.00,,,-99.99,,2013-08-06 19:21:00,
2013-08-06 14:32:00,87.0,62.0,-100.00,South,175,9.0,15.0,42,0.00,,,-99.99,,2013-08-06 19:32:00,
2013-08-06 14:42:00,87.0,63.0,-100.00,South,180,12.0,18.0,44,0.00,,,-99.99,,2013-08-06 19:42:00,
2013-08-06 15:01:00,88.0,61.0,-100.00,SW,220,11.0,17.0,40,0.00,,,-99.99,,2013-08-06 20:01:00,
2013-08-06 15:11:00,88.0,62.0,-100.00,South,180,11.0,17.0,41,0.00,,,-99.99,,2013-08-06 20:11:00,
2013-08-06 15:32:00,89.0,60.0,-100.00,SW,215,7.0,13.0,37,0.00,,,-99.99,,2013-08-06 20:32:00,
2013-08-06 15:44:00,90.0,60.0,-100.00,West,270,6.0,14.0,37,0.00,,,-99.99,,2013-08-06 20:44:00,
2013-08-06 16:01:00,90.0,59.0,-100.00,WSW,250,6.0,15.0,35,0.00,,,-99.99,,2013-08-06 21:01:00,
2013-08-06 16:11:00,90.0,59.0,-100.00,SW,235,10.0,16.0,36,0.00,,,-99.99,,2013-08-06 21:11:00,
2013-08-06 16:22:00,89.0,59.0,-100.00,WSW,245,11.0,18.0,36,0.00,,,-99.99,,2013-08-06 21:22:00,
2013-08-06 16:32:00,89.0,59.0,-100.00,West,260,10.0,14.0,36,0.00,,,-99.99,,2013-08-06 21:32:00,
2013-08-06 16:43:00,89.0,59.0,-100.00,West,260,10.0,14.0,36,0.00,,,-99.99,,2013-08-06 21:43:00,
2013-08-06 16:52:00,90.0,60.0,-100.00,West,270,7.0,15.0,37,0.00,,,-99.99,,2013-08-06 21:52:00,
2013-08-06 17:01:00,89.0,61.0,-100.00,West,260,7.0,17.0,38,0.00,,,-99.99,,2013-08-06 22:01:00,
2013-08-06 17:11:00,88.0,61.0,-100.00,WSW,250,8.0,13.0,40,0.00,,,-99.99,,2013-08-06 22:11:00,
2013-08-06 17:22:00,88.0,62.0,-100.00,West,270,9.0,15.0,41,0.00,,,-99.99,,2013-08-06 22:22:00,
2013-08-06 17:32:00,89.0,63.0,-100.00,WSW,255,7.0,12.0,41,0.00,,,-99.99,,2013-08-06 22:32:00,
2013-08-06 17:43:00,88.0,63.0,-100.00,WSW,255,8.0,14.0,42,0.00,,,-99.99,,2013-08-06 22:43:00,
2013-08-06 18:01:00,88.0,63.0,-100.00,WSW,255,6.0,12.0,43,0.00,,,-99.99,,2013-08-06 23:01:00,
2013-08-06 18:11:00,89.0,64.0,-100.00,WSW,240,4.0,11.0,44,0.00,,,-99.99,,2013-08-06 23:11:00,
2013-08-06 18:22:00,89.0,64.0,-100.00,SW,215,6.0,9.0,44,0.00,,,-99.99,,2013-08-06 23:22:00,
2013-08-06 18:32:00,89.0,64.0,-100.00,West,275,6.0,7.0,44,0.00,,,-99.99,,2013-08-06 23:32:00,
2013-08-06 18:43:00,89.0,65.0,-100.00,SSW,210,4.0,7.0,44,0.00,,,-99.99,,2013-08-06 23:43:00,
2013-08-06 19:01:00,88.0,65.0,-100.00,West,275,5.0,8.0,45,0.00,,,-99.99,,2013-08-07 00:01:00,
2013-08-06 19:11:00,88.0,64.0,-100.00,WNW,290,5.0,9.0,45,0.00,,,-99.99,,2013-08-07 00:11:00,
2013-08-06 19:21:00,87.0,64.0,-100.00,WNW,290,6.0,7.0,46,0.00,,,-99.99,,2013-08-07 00:21:00,
2013-08-06 19:32:00,87.0,64.0,-100.00,WNW,295,4.0,6.0,47,0.00,,,-99.99,,2013-08-07 00:32:00,
2013-08-06 19:43:00,87.0,65.0,-100.00,WNW,295,2.0,6.0,48,0.00,,,-99.99,,2013-08-07 00:43:00,
2013-08-06 19:52:00,87.0,65.0,-100.00,West,280,2.0,6.0,48,0.00,,,-99.99,,2013-08-07 00:52:00,
2013-08-06 20:01:00,86.0,65.0,-100.00,West,265,2.0,5.0,49,0.00,,,-99.99,,2013-08-07 01:01:00,
2013-08-06 20:11:00,86.0,65.0,-100.00,West,265,2.0,5.0,49,0.00,,,-99.99,,2013-08-07 01:11:00,
2013-08-06 20:22:00,85.0,65.0,-100.00,SW,230,2.0,4.0,50,0.00,,,-99.99,,2013-08-07 01:22:00,
2013-08-06 20:32:00,85.0,65.0,-100.00,SSE,160,3.0,4.0,51,0.00,,,-99.99,,2013-08-07 01:32:00,
2013-08-06 20:52:00,82.0,67.0,-100.00,SSE,165,2.0,6.0,59,0.00,,,-99.99,,2013-08-07 01:52:00,
2013-08-06 21:02:00,81.0,67.0,-100.00,SSE,150,3.0,4.0,62,0.00,,,-99.99,,2013-08-07 02:02:00,
2013-08-06 21:11:00,81.0,62.0,-100.00,SSE,155,12.0,20.0,53,0.00,,,-99.99,,2013-08-07 02:11:00,
2013-08-06 21:22:00,79.0,60.0,-100.00,SSE,165,13.0,17.0,51,0.00,,,-99.99,,2013-08-07 02:22:00,
2013-08-06 21:43:00,78.0,61.0,-100.00,South,180,7.0,14.0,55,0.00,,,-99.99,,2013-08-07 02:43:00,
2013-08-06 22:01:00,77.0,61.0,-100.00,South,180,4.0,9.0,57,0.00,,,-99.99,,2013-08-07 03:01:00,
2013-08-06 22:11:00,76.0,62.0,-100.00,SSE,155,2.0,4.0,61,0.00,,,-99.99,,2013-08-07 03:11:00,
2013-08-06 22:23:00,76.0,62.0,-100.00,SE,145,4.0,6.0,62,0.00,,,-99.99,,2013-08-07 03:23:00,
2013-08-06 22:43:00,76.0,63.0,-100.00,South,185,5.0,8.0,64,0.00,,,-99.99,,2013-08-07 03:43:00,
2013-08-06 23:01:00,75.0,63.0,-100.00,South,190,6.0,8.0,66,0.00,,,-99.99,,2013-08-07 04:01:00,
2013-08-06 23:11:00,75.0,64.0,-100.00,SSW,200,4.0,7.0,67,0.00,,,-99.99,,2013-08-07 04:11:00,
2013-08-06 23:21:00,75.0,64.0,-100.00,SW,215,4.0,6.0,68,0.00,,,-99.99,,2013-08-07 04:21:00,
2013-08-06 23:33:00,75.0,64.0,-100.00,SSW,210,4.0,6.0,68,0.00,,,-99.99,,2013-08-07 04:33:00,
2013-08-06 23:43:00,75.0,64.0,-100.00,SSW,210,4.0,6.0,68,0.00,,,-99.99,,2013-08-07 04:43:00,